createdAt,value
2022-08-30T00:01:05.343Z,6.65
2022-08-30T00:03:41.193Z,6.68
2022-08-30T00:06:09.621Z,7.78
2022-08-30T00:08:37.634Z,6.78
2022-08-30T00:11:06.392Z,10.23
2022-08-30T00:13:33.414Z,9.63
2022-08-30T00:16:00.419Z,8.65
2022-08-30T00:18:28.132Z,9.00
2022-08-30T00:20:55.918Z,7.70
2022-08-30T00:23:23.445Z,13.18
2022-08-30T00:25:50.496Z,6.63
2022-08-30T00:28:17.502Z,7.53
2022-08-30T00:30:45.565Z,7.00
2022-08-30T00:33:13.877Z,7.57
2022-08-30T00:35:41.747Z,6.40
2022-08-30T00:38:10.169Z,7.05
2022-08-30T00:40:41.791Z,7.80
2022-08-30T00:43:14.795Z,5.15
2022-08-30T00:45:41.897Z,12.30
2022-08-30T00:48:09.026Z,8.13
2022-08-30T00:51:00.565Z,9.07
2022-08-30T00:53:32.057Z,8.65
2022-08-30T00:56:00.569Z,8.15
2022-08-30T00:58:32.150Z,6.45
2022-08-30T01:01:00.746Z,8.07
2022-08-30T01:03:28.679Z,5.25
2022-08-30T01:05:57.736Z,8.75
2022-08-30T01:08:24.903Z,7.07
2022-08-30T01:10:54.956Z,4.82
2022-08-30T01:13:23.781Z,5.55
2022-08-30T01:15:51.553Z,14.43
2022-08-30T01:18:21.315Z,9.23
2022-08-30T01:20:58.293Z,5.72
2022-08-30T01:23:27.356Z,5.25
2022-08-30T01:25:55.352Z,6.97
2022-08-30T01:28:25.891Z,7.30
2022-08-30T01:30:53.539Z,9.30
2022-08-30T01:33:22.075Z,6.03
2022-08-30T01:36:01.591Z,9.80
2022-08-30T01:38:34.511Z,10.93
2022-08-30T01:41:13.362Z,10.52
2022-08-30T01:43:41.108Z,7.50
2022-08-30T01:46:11.169Z,5.78
2022-08-30T01:48:39.562Z,10.98
2022-08-30T01:51:09.441Z,6.63
2022-08-30T01:53:36.431Z,7.03
2022-08-30T01:56:03.637Z,8.05
2022-08-30T01:58:30.677Z,10.10
2022-08-30T02:00:58.043Z,5.40
2022-08-30T02:03:30.434Z,5.80
2022-08-30T02:05:57.685Z,10.15
2022-08-30T02:08:24.732Z,8.45
2022-08-30T02:10:54.539Z,9.88
2022-08-30T02:13:21.550Z,4.40
2022-08-30T02:15:48.731Z,7.35
2022-08-30T02:18:15.675Z,11.85
2022-08-30T02:20:42.835Z,10.57
2022-08-30T02:23:09.866Z,7.97
2022-08-30T02:25:36.887Z,8.02
2022-08-30T02:28:05.017Z,7.53
2022-08-30T02:30:33.918Z,8.63
2022-08-30T02:33:01.123Z,10.55
2022-08-30T02:35:28.255Z,5.60
2022-08-30T02:37:55.227Z,10.20
2022-08-30T02:40:22.505Z,9.55
2022-08-30T02:42:49.671Z,8.70
2022-08-30T02:45:16.699Z,6.82
2022-08-30T02:47:47.065Z,7.25
2022-08-30T02:50:15.309Z,7.82
2022-08-30T02:52:42.687Z,6.00
2022-08-30T02:55:12.289Z,9.80
2022-08-30T02:57:39.237Z,9.52
2022-08-30T03:00:08.303Z,7.15
2022-08-30T03:02:35.549Z,6.95
2022-08-30T03:05:03.287Z,5.75
2022-08-30T03:07:31.563Z,11.90
2022-08-30T03:09:58.551Z,7.40
2022-08-30T03:12:25.523Z,9.55
2022-08-30T03:14:52.630Z,5.47
2022-08-30T03:17:19.654Z,8.23
2022-08-30T03:19:46.715Z,6.93
2022-08-30T03:22:13.830Z,6.10
2022-08-30T03:24:40.958Z,6.95
2022-08-30T03:27:08.144Z,6.20
2022-08-30T03:29:35.374Z,7.82
2022-08-30T03:32:02.534Z,9.40
2022-08-30T03:34:29.585Z,7.47
2022-08-30T03:36:56.824Z,10.50
2022-08-30T03:39:24.774Z,9.55
2022-08-30T03:41:52.259Z,12.50
2022-08-30T03:44:19.843Z,7.88
2022-08-30T03:46:47.714Z,7.53
2022-08-30T03:49:15.374Z,8.57
2022-08-30T03:51:42.690Z,5.88
2022-08-30T03:54:10.091Z,7.32
2022-08-30T03:56:37.269Z,9.27
2022-08-30T03:59:04.892Z,8.57
2022-08-30T04:01:32.464Z,6.97
2022-08-30T04:03:59.675Z,8.60
2022-08-30T04:06:27.399Z,8.57
2022-08-30T04:08:55.166Z,7.07
2022-08-30T04:11:22.104Z,9.77
2022-08-30T04:13:51.832Z,9.32
2022-08-30T04:16:20.063Z,8.00
2022-08-30T04:18:47.512Z,10.75
2022-08-30T04:21:15.769Z,9.38
2022-08-30T04:23:43.649Z,8.65
2022-08-30T04:26:11.000Z,7.05
2022-08-30T04:28:38.084Z,5.57
2022-08-30T04:31:16.564Z,9.88
2022-08-30T04:33:44.602Z,11.30
2022-08-30T04:36:13.741Z,15.52
2022-08-30T04:38:42.098Z,9.55
2022-08-30T04:41:18.881Z,9.93
2022-08-30T04:43:47.747Z,8.20
2022-08-30T04:46:15.001Z,9.32
2022-08-30T04:48:42.968Z,7.47
2022-08-30T04:51:14.196Z,5.05
2022-08-30T04:53:42.716Z,7.18
2022-08-30T04:56:12.591Z,12.50
2022-08-30T04:58:39.641Z,4.63
2022-08-30T05:01:32.129Z,6.80
2022-08-30T05:04:11.680Z,7.78
2022-08-30T05:06:38.789Z,11.85
2022-08-30T05:09:05.919Z,10.82
2022-08-30T05:11:33.196Z,11.55
2022-08-30T05:14:00.237Z,9.45
2022-08-30T05:16:27.602Z,13.15
2022-08-30T05:18:54.930Z,10.30
2022-08-30T05:21:25.656Z,10.45
2022-08-30T05:23:59.886Z,9.88
2022-08-30T05:26:30.573Z,12.32
2022-08-30T05:28:58.230Z,10.18
2022-08-30T05:31:31.777Z,5.32
2022-08-30T05:33:59.619Z,9.20
2022-08-30T05:36:29.241Z,8.57
2022-08-30T05:38:57.105Z,11.23
2022-08-30T05:41:26.688Z,9.35
2022-08-30T05:43:59.621Z,8.00
2022-08-30T05:46:29.817Z,8.38
2022-08-30T05:51:26.463Z,7.95
2022-08-30T05:53:55.018Z,8.68
2022-08-30T05:56:31.785Z,9.57
2022-08-30T05:58:59.970Z,8.95
2022-08-30T06:01:30.245Z,6.55
2022-08-30T06:04:02.998Z,14.20
2022-08-30T06:06:32.915Z,10.93
2022-08-30T06:08:59.904Z,11.88
2022-08-30T06:11:27.088Z,8.07
2022-08-30T06:13:55.069Z,8.40
2022-08-30T06:16:24.372Z,9.90
2022-08-30T06:18:52.610Z,8.73
2022-08-30T06:21:25.303Z,10.93
2022-08-30T06:23:52.967Z,9.65
2022-08-30T06:26:20.464Z,12.45
2022-08-30T06:28:47.470Z,9.68
2022-08-30T06:31:17.439Z,14.50
2022-08-30T06:33:45.187Z,13.15
2022-08-30T06:36:22.746Z,13.88
2022-08-30T06:38:52.166Z,11.52
2022-08-30T06:41:22.376Z,9.60
2022-08-30T06:46:21.023Z,14.73
2022-08-30T06:48:48.733Z,11.98
2022-08-30T06:51:19.998Z,15.10
2022-08-30T06:53:47.091Z,15.35
2022-08-30T06:56:16.654Z,15.60
2022-08-30T06:58:44.637Z,12.40
2022-08-30T07:01:17.393Z,15.27
2022-08-30T07:03:44.859Z,11.40
2022-08-30T07:06:13.540Z,19.40
2022-08-30T07:08:41.610Z,11.73
2022-08-30T07:11:09.189Z,11.43
2022-08-30T07:13:37.614Z,14.18
2022-08-30T07:16:12.791Z,12.98
2022-08-30T07:18:54.810Z,15.73
2022-08-30T07:21:34.482Z,12.13
2022-08-30T07:24:02.330Z,22.17
2022-08-30T07:26:52.094Z,20.60
2022-08-30T07:29:21.427Z,18.42
2022-08-30T07:31:48.494Z,22.35
2022-08-30T07:34:15.540Z,15.13
2022-08-30T07:36:42.566Z,15.70
2022-08-30T07:39:09.895Z,17.77
2022-08-30T07:41:41.090Z,19.23
2022-08-30T07:44:09.065Z,17.30
2022-08-30T07:46:39.739Z,14.45
2022-08-30T07:49:11.256Z,14.32
2022-08-30T07:51:39.565Z,18.27
2022-08-30T07:54:07.135Z,14.00
2022-08-30T07:56:35.281Z,14.30
2022-08-30T07:59:02.411Z,11.55
2022-08-30T08:01:29.448Z,11.00
2022-08-30T08:03:56.679Z,12.32
2022-08-30T08:06:24.816Z,12.98
2022-08-30T08:08:51.883Z,12.15
2022-08-30T08:11:24.454Z,19.95
2022-08-30T08:13:53.992Z,17.10
2022-08-30T08:16:23.864Z,12.57
2022-08-30T08:18:51.826Z,14.35
2022-08-30T08:21:18.830Z,17.27
2022-08-30T08:23:45.784Z,15.20
2022-08-30T08:26:13.078Z,18.08
2022-08-30T08:28:41.695Z,12.15
2022-08-30T08:31:17.924Z,9.10
2022-08-30T08:33:45.207Z,10.95
2022-08-30T08:36:12.394Z,12.65
2022-08-30T08:38:39.603Z,9.65
2022-08-30T08:41:42.094Z,11.23
2022-08-30T08:44:44.992Z,8.18
2022-08-30T08:47:23.893Z,7.75
2022-08-30T08:49:56.030Z,12.35
2022-08-30T08:52:53.503Z,7.70
2022-08-30T08:55:22.851Z,10.18
2022-08-30T08:57:52.380Z,10.33
2022-08-30T09:00:19.794Z,7.03
2022-08-30T09:02:56.995Z,10.60
2022-08-30T09:05:27.754Z,7.63
2022-08-30T09:08:04.565Z,10.27
2022-08-30T09:10:50.077Z,8.57
2022-08-30T09:13:19.142Z,9.90
2022-08-30T09:15:48.971Z,8.93
2022-08-30T09:18:20.044Z,9.20
2022-08-30T09:20:51.684Z,19.45
2022-08-30T09:23:18.583Z,7.30
2022-08-30T09:25:59.713Z,9.15
2022-08-30T09:28:35.482Z,7.97
2022-08-30T09:31:21.582Z,7.05
2022-08-30T09:34:15.516Z,8.60
2022-08-30T09:36:51.922Z,7.78
2022-08-30T09:39:38.131Z,10.10
2022-08-30T09:42:25.402Z,9.18
2022-08-30T09:44:54.098Z,10.75
2022-08-30T09:47:27.611Z,6.88
2022-08-30T09:50:24.103Z,10.55
2022-08-30T09:53:16.159Z,5.78
2022-08-30T09:56:34.911Z,5.60
2022-08-30T09:59:11.574Z,7.15
2022-08-30T10:02:06.316Z,6.13
2022-08-30T10:05:30.843Z,5.22
2022-08-30T10:08:14.914Z,6.72
2022-08-30T10:11:05.621Z,6.60
2022-08-30T10:14:09.688Z,5.18
2022-08-30T10:16:39.640Z,7.32
2022-08-30T10:19:25.213Z,5.85
2022-08-30T10:21:58.198Z,8.38
2022-08-30T10:24:33.846Z,9.05
2022-08-30T10:27:13.010Z,13.60
2022-08-30T10:30:08.227Z,15.38
2022-08-30T10:32:49.880Z,4.93
2022-08-30T10:35:36.865Z,12.35
2022-08-30T10:38:30.782Z,5.03
2022-08-30T10:41:27.905Z,17.45
2022-08-30T10:44:12.182Z,3.85
2022-08-30T10:47:00.543Z,7.32
2022-08-30T10:49:37.427Z,7.90
2022-08-30T10:52:23.444Z,4.78
2022-08-30T10:55:15.014Z,8.15
2022-08-30T10:57:42.995Z,5.97
2022-08-30T11:00:15.620Z,8.85
2022-08-30T11:02:52.495Z,5.07
2022-08-30T11:05:43.604Z,5.28
2022-08-30T11:08:20.339Z,4.15
2022-08-30T11:11:05.450Z,6.22
2022-08-30T11:13:35.527Z,6.63
2022-08-30T11:16:06.512Z,6.82
2022-08-30T11:18:45.147Z,5.95
2022-08-30T11:21:36.866Z,10.15
2022-08-30T11:24:12.142Z,4.53
2022-08-30T11:26:46.009Z,7.32
2022-08-30T11:29:52.077Z,5.32
2022-08-30T11:32:25.778Z,3.97
2022-08-30T11:34:59.471Z,3.78
2022-08-30T11:37:39.598Z,12.00
2022-08-30T11:40:13.357Z,5.60
2022-08-30T11:42:48.026Z,3.58
2022-08-30T11:45:26.868Z,2.78
2022-08-30T11:51:00.358Z,5.60
2022-08-30T11:53:52.817Z,4.03
2022-08-30T11:56:28.446Z,4.35
2022-08-30T11:59:18.409Z,3.55
2022-08-30T12:01:50.957Z,2.10
2022-08-30T12:04:19.810Z,6.15
2022-08-30T12:06:51.955Z,8.88
2022-08-30T12:09:25.293Z,5.05
2022-08-30T12:11:59.949Z,5.63
2022-08-30T12:14:41.048Z,4.25
2022-08-30T12:17:36.711Z,4.32
2022-08-30T12:20:11.584Z,3.13
2022-08-30T12:22:40.774Z,3.38
2022-08-30T12:25:25.315Z,9.52
2022-08-30T12:28:22.291Z,5.53
2022-08-30T12:30:50.525Z,11.40
2022-08-30T12:33:29.079Z,6.80
2022-08-30T12:35:59.509Z,8.38
2022-08-30T12:38:30.325Z,4.53
2022-08-30T12:41:02.586Z,4.28
2022-08-30T12:43:41.387Z,5.47
2022-08-30T12:46:15.333Z,6.60
2022-08-30T12:48:44.786Z,8.00
2022-08-30T12:51:29.703Z,2.92
2022-08-30T12:54:05.609Z,4.72
2022-08-30T12:56:53.151Z,3.80
2022-08-30T12:59:54.068Z,3.58
2022-08-30T13:02:28.676Z,6.25
2022-08-30T13:04:56.933Z,3.80
2022-08-30T13:07:36.043Z,13.48
2022-08-30T13:10:20.073Z,5.10
2022-08-30T13:13:05.489Z,2.35
2022-08-30T13:15:35.899Z,3.42
2022-08-30T13:18:27.837Z,5.63
2022-08-30T13:21:23.349Z,5.90
2022-08-30T13:23:57.252Z,3.95
2022-08-30T13:26:24.550Z,6.90
2022-08-30T13:29:00.377Z,5.53
2022-08-30T13:31:30.140Z,6.60
2022-08-30T13:33:58.570Z,9.45
2022-08-30T13:36:33.023Z,3.20
2022-08-30T13:39:01.826Z,4.65
2022-08-30T13:41:34.526Z,3.67
2022-08-30T13:44:13.199Z,4.72
2022-08-30T13:46:44.777Z,3.90
2022-08-30T13:49:46.602Z,7.40
2022-08-30T13:52:21.322Z,4.43
2022-08-30T13:54:51.127Z,6.53
2022-08-30T14:00:12.260Z,5.70
2022-08-30T14:02:46.309Z,4.18
2022-08-30T14:05:37.467Z,2.72
2022-08-30T14:08:02.538Z,5.07
2022-08-30T14:10:31.511Z,4.78
2022-08-30T14:13:08.045Z,4.93
2022-08-30T14:15:38.917Z,5.25
2022-08-30T14:18:07.777Z,8.02
2022-08-30T14:20:38.751Z,4.72
2022-08-30T14:23:07.608Z,5.88
2022-08-30T14:25:40.811Z,3.97
2022-08-30T14:28:09.616Z,11.00
2022-08-30T14:30:39.153Z,3.72
2022-08-30T14:33:06.556Z,3.10
2022-08-30T14:35:33.837Z,3.22
2022-08-30T14:38:00.797Z,3.35
2022-08-30T14:40:28.477Z,6.22
2022-08-30T14:42:55.521Z,3.25
2022-08-30T14:45:22.695Z,2.38
2022-08-30T14:47:50.661Z,4.47
2022-08-30T14:50:17.722Z,6.07
2022-08-30T14:52:45.239Z,5.47
2022-08-30T14:55:13.140Z,2.85
2022-08-30T14:57:40.559Z,7.57
2022-08-30T15:00:11.137Z,4.93
2022-08-30T15:02:38.135Z,4.05
2022-08-30T15:05:06.862Z,3.83
2022-08-30T15:07:46.442Z,7.30
2022-08-30T15:10:18.238Z,5.18
2022-08-30T15:12:49.673Z,4.90
2022-08-30T15:15:21.153Z,1.77
2022-08-30T15:17:49.711Z,3.50
2022-08-30T15:20:20.866Z,3.15
2022-08-30T15:22:48.409Z,6.03
2022-08-30T15:25:20.700Z,6.00
2022-08-30T15:27:49.221Z,3.30
2022-08-30T15:30:16.234Z,5.53
2022-08-30T15:32:47.163Z,4.07
2022-08-30T15:35:14.043Z,5.07
2022-08-30T15:37:47.361Z,5.03
2022-08-30T15:40:14.714Z,5.20
2022-08-30T15:42:42.326Z,7.93
2022-08-30T15:45:10.005Z,2.33
2022-08-30T15:47:38.168Z,3.45
2022-08-30T15:50:06.844Z,4.07
2022-08-30T15:52:33.867Z,4.97
2022-08-30T15:55:00.821Z,2.97
2022-08-30T15:57:27.876Z,5.95
2022-08-30T15:59:55.596Z,3.40
2022-08-30T16:02:27.538Z,3.45
2022-08-30T16:04:55.028Z,2.45
2022-08-30T16:07:21.971Z,4.05
2022-08-30T16:09:48.888Z,7.93
2022-08-30T16:12:22.585Z,3.38
2022-08-30T16:14:51.469Z,3.85
2022-08-30T16:17:18.668Z,6.63
2022-08-30T16:19:45.634Z,4.72
2022-08-30T16:22:12.675Z,8.73
2022-08-30T16:24:43.728Z,3.97
2022-08-30T16:27:13.713Z,7.72
2022-08-30T16:29:41.057Z,2.85
2022-08-30T16:32:08.294Z,3.33
2022-08-30T16:34:35.846Z,3.20
2022-08-30T16:37:04.315Z,3.55
2022-08-30T16:39:32.510Z,4.75
2022-08-30T16:42:03.117Z,3.35
2022-08-30T16:44:30.431Z,3.65
2022-08-30T16:46:57.629Z,4.53
2022-08-30T16:49:25.545Z,3.63
2022-08-30T16:51:53.411Z,5.32
2022-08-30T16:54:20.635Z,5.95
2022-08-30T16:56:47.605Z,13.23
2022-08-30T16:59:14.880Z,7.70
2022-08-30T17:01:44.891Z,11.95
2022-08-30T17:06:42.978Z,10.25
2022-08-30T17:09:10.896Z,11.50
2022-08-30T17:11:40.210Z,5.75
2022-08-30T17:14:08.303Z,5.95
2022-08-30T17:16:36.074Z,5.20
2022-08-30T17:19:05.855Z,7.72
2022-08-30T17:21:34.049Z,7.90
2022-08-30T17:24:02.956Z,4.68
2022-08-30T17:26:36.058Z,13.20
2022-08-30T17:29:04.592Z,8.18
2022-08-30T17:31:31.851Z,4.57
2022-08-30T17:34:03.212Z,5.22
2022-08-30T17:36:32.914Z,3.38
2022-08-30T17:39:10.343Z,3.97
2022-08-30T17:41:45.364Z,4.50
2022-08-30T17:44:19.766Z,9.07
2022-08-30T17:46:46.977Z,5.35
2022-08-30T17:49:15.078Z,6.75
2022-08-30T17:51:44.584Z,13.93
2022-08-30T17:54:13.040Z,6.68
2022-08-30T17:56:41.706Z,9.25
2022-08-30T17:59:11.437Z,4.45
2022-08-30T18:01:41.738Z,5.43
2022-08-30T18:04:10.018Z,7.03
2022-08-30T18:06:37.285Z,3.78
2022-08-30T18:09:08.397Z,11.68
2022-08-30T18:11:39.479Z,6.40
2022-08-30T18:14:08.088Z,6.65
2022-08-30T18:16:39.077Z,4.00
2022-08-30T18:19:17.483Z,7.00
2022-08-30T18:21:44.579Z,3.20
2022-08-30T18:24:12.743Z,6.07
2022-08-30T18:26:42.927Z,5.43
2022-08-30T18:29:10.880Z,7.40
2022-08-30T18:31:37.898Z,4.85
2022-08-30T18:34:04.942Z,8.02
2022-08-30T18:36:32.125Z,6.78
2022-08-30T18:38:59.424Z,6.18
2022-08-30T18:41:26.685Z,7.35
2022-08-30T18:44:11.068Z,7.85
2022-08-30T18:46:56.455Z,6.40
2022-08-30T18:49:32.175Z,6.78
2022-08-30T18:52:01.030Z,3.70
2022-08-30T18:54:29.029Z,5.10
2022-08-30T18:56:55.984Z,8.82
2022-08-30T18:59:23.302Z,5.28
2022-08-30T19:02:02.930Z,3.78
2022-08-30T19:04:35.726Z,6.28
2022-08-30T19:07:05.395Z,5.80
2022-08-30T19:09:32.819Z,4.67
2022-08-30T19:11:59.738Z,9.70
2022-08-30T19:14:27.930Z,3.45
2022-08-30T19:16:56.271Z,4.05
2022-08-30T19:19:23.911Z,6.28
2022-08-30T19:21:51.886Z,4.63
2022-08-30T19:24:19.992Z,4.88
2022-08-30T19:26:47.729Z,6.18
2022-08-30T19:29:15.297Z,4.18
2022-08-30T19:31:43.974Z,7.82
2022-08-30T19:34:11.524Z,9.88
2022-08-30T19:36:39.329Z,9.80
2022-08-30T19:39:07.501Z,4.82
2022-08-30T19:41:34.531Z,6.13
2022-08-30T19:44:03.384Z,5.47
2022-08-30T19:46:32.485Z,15.75
2022-08-30T19:49:01.243Z,9.27
2022-08-30T19:51:28.325Z,4.05
2022-08-30T19:53:56.356Z,8.98
2022-08-30T19:56:26.492Z,10.35
2022-08-30T19:58:53.643Z,6.40
2022-08-30T20:01:32.296Z,2.75
2022-08-30T20:04:02.311Z,6.80
2022-08-30T20:06:30.595Z,2.90
2022-08-30T20:08:58.529Z,8.88
2022-08-30T20:11:28.994Z,9.20
2022-08-30T20:13:56.842Z,6.78
2022-08-30T20:16:28.393Z,8.20
2022-08-30T20:21:33.444Z,6.53
2022-08-30T20:24:01.321Z,6.85
2022-08-30T20:26:33.869Z,5.47
2022-08-30T20:29:02.676Z,5.90
2022-08-30T20:31:29.784Z,6.57
2022-08-30T20:33:57.085Z,11.80
2022-08-30T20:36:24.082Z,6.13
2022-08-30T20:38:51.190Z,2.97
2022-08-30T20:41:19.107Z,6.35
2022-08-30T20:43:46.996Z,4.00
2022-08-30T20:46:18.315Z,5.28
2022-08-30T20:48:46.443Z,5.70
2022-08-30T20:51:19.816Z,5.80
2022-08-30T20:53:47.042Z,3.72
2022-08-30T20:56:17.178Z,3.72
2022-08-30T20:58:45.143Z,4.38
2022-08-30T21:01:13.503Z,5.28
2022-08-30T21:03:41.633Z,3.20
2022-08-30T21:06:09.034Z,3.85
2022-08-30T21:08:36.033Z,10.02
2022-08-30T21:11:03.033Z,13.95
2022-08-30T21:13:30.417Z,5.18
2022-08-30T21:16:03.767Z,2.80
2022-08-30T21:18:33.992Z,10.52
2022-08-30T21:21:12.291Z,4.13
2022-08-30T21:23:39.384Z,7.43
2022-08-30T21:26:07.535Z,6.40
2022-08-30T21:28:35.249Z,3.45
2022-08-30T21:31:11.381Z,3.25
2022-08-30T21:33:39.011Z,2.70
2022-08-30T21:36:26.060Z,4.68
2022-08-30T21:38:53.635Z,3.03
2022-08-30T21:41:26.916Z,2.58
2022-08-30T21:43:59.243Z,3.92
2022-08-30T21:46:28.035Z,2.92
2022-08-30T21:48:56.990Z,1.65
2022-08-30T21:51:23.982Z,4.20
2022-08-30T21:53:51.444Z,2.33
2022-08-30T21:56:22.026Z,1.70
2022-08-30T21:58:50.050Z,2.20
2022-08-30T22:01:23.720Z,1.77
2022-08-30T22:03:55.803Z,2.85
2022-08-30T22:06:25.214Z,6.97
2022-08-30T22:09:01.602Z,4.55
2022-08-30T22:11:31.639Z,2.30
2022-08-30T22:13:59.325Z,1.73
2022-08-30T22:16:28.673Z,1.85
2022-08-30T22:18:56.095Z,4.28
2022-08-30T22:21:26.389Z,2.92
2022-08-30T22:23:55.077Z,3.08
2022-08-30T22:26:23.917Z,7.00
2022-08-30T22:28:52.579Z,1.45
2022-08-30T22:31:21.095Z,2.85
2022-08-30T22:33:49.732Z,3.00
2022-08-30T22:36:32.829Z,4.32
2022-08-30T22:39:01.396Z,2.42
2022-08-30T22:41:31.395Z,2.30
2022-08-30T22:43:58.811Z,2.55
2022-08-30T22:46:33.620Z,3.03
2022-08-30T22:49:02.406Z,2.63
2022-08-30T22:51:29.819Z,1.92
2022-08-30T22:53:56.999Z,3.53
2022-08-30T22:56:25.762Z,3.25
2022-08-30T22:58:54.457Z,4.45
2022-08-30T23:01:25.015Z,3.83
2022-08-30T23:03:53.258Z,2.42
2022-08-30T23:06:20.792Z,2.92
2022-08-30T23:08:47.897Z,1.25
2022-08-30T23:11:15.816Z,4.05
2022-08-30T23:13:44.073Z,1.85
2022-08-30T23:16:12.541Z,5.50
2022-08-30T23:18:42.874Z,1.55
2022-08-30T23:21:16.119Z,1.40
2022-08-30T23:24:02.108Z,4.10
2022-08-30T23:26:47.768Z,4.32
2022-08-30T23:29:33.521Z,2.08
2022-08-30T23:32:19.273Z,1.50
2022-08-30T23:35:04.932Z,1.65
2022-08-30T23:37:53.035Z,2.20
2022-08-30T23:40:40.523Z,1.90
2022-08-30T23:43:27.219Z,3.38
2022-08-30T23:46:16.987Z,6.22
2022-08-30T23:49:06.735Z,4.32
2022-08-30T23:51:53.506Z,1.50
2022-08-30T23:54:39.144Z,5.68
2022-08-30T23:57:25.778Z,3.35
